sensor_id;sensor_type;location;lat;lon;timestamp;P1;durP1;ratioP1;P2;durP2;ratioP2
9559;SDS011;4818;50.860;4.648;2024-02-28T00:02:08;1.97;;;0.90;;
9559;SDS011;4818;50.860;4.648;2024-02-28T00:04:43;5.13;;;0.95;;
9559;SDS011;4818;50.860;4.648;2024-02-28T00:07:09;5.80;;;1.48;;
9559;SDS011;4818;50.860;4.648;2024-02-28T00:09:54;7.70;;;3.50;;
9559;SDS011;4818;50.860;4.648;2024-02-28T00:12:25;8.30;;;2.40;;
9559;SDS011;4818;50.860;4.648;2024-02-28T00:14:54;13.07;;;3.50;;
9559;SDS011;4818;50.860;4.648;2024-02-28T00:17:21;17.35;;;4.47;;
9559;SDS011;4818;50.860;4.648;2024-02-28T00:19:59;14.48;;;4.95;;
9559;SDS011;4818;50.860;4.648;2024-02-28T00:22:35;18.67;;;6.95;;
9559;SDS011;4818;50.860;4.648;2024-02-28T00:25:05;12.70;;;5.03;;
9559;SDS011;4818;50.860;4.648;2024-02-28T00:29:57;13.75;;;5.35;;
9559;SDS011;4818;50.860;4.648;2024-02-28T00:32:24;14.38;;;5.82;;
9559;SDS011;4818;50.860;4.648;2024-02-28T00:34:56;10.38;;;3.40;;
9559;SDS011;4818;50.860;4.648;2024-02-28T00:37:43;10.63;;;3.33;;
9559;SDS011;4818;50.860;4.648;2024-02-28T00:40:12;11.60;;;5.25;;
9559;SDS011;4818;50.860;4.648;2024-02-28T00:42:42;17.52;;;4.25;;
9559;SDS011;4818;50.860;4.648;2024-02-28T00:45:14;17.45;;;5.75;;
9559;SDS011;4818;50.860;4.648;2024-02-28T00:47:41;16.33;;;5.85;;
9559;SDS011;4818;50.860;4.648;2024-02-28T00:50:20;17.48;;;6.32;;
9559;SDS011;4818;50.860;4.648;2024-02-28T00:52:55;11.30;;;4.07;;
9559;SDS011;4818;50.860;4.648;2024-02-28T00:55:28;10.48;;;4.18;;
9559;SDS011;4818;50.860;4.648;2024-02-28T01:03:39;16.08;;;4.35;;
9559;SDS011;4818;50.860;4.648;2024-02-28T01:06:08;12.10;;;4.03;;
9559;SDS011;4818;50.860;4.648;2024-02-28T01:08:35;11.32;;;5.63;;
9559;SDS011;4818;50.860;4.648;2024-02-28T01:11:01;11.25;;;3.85;;
9559;SDS011;4818;50.860;4.648;2024-02-28T01:13:27;12.25;;;4.45;;
9559;SDS011;4818;50.860;4.648;2024-02-28T01:15:54;14.98;;;5.05;;
9559;SDS011;4818;50.860;4.648;2024-02-28T01:18:25;17.55;;;5.03;;
9559;SDS011;4818;50.860;4.648;2024-02-28T01:20:53;12.25;;;5.38;;
9559;SDS011;4818;50.860;4.648;2024-02-28T01:23:19;18.60;;;6.78;;
9559;SDS011;4818;50.860;4.648;2024-02-28T01:25:46;16.00;;;5.90;;
9559;SDS011;4818;50.860;4.648;2024-02-28T01:28:12;19.75;;;5.82;;
9559;SDS011;4818;50.860;4.648;2024-02-28T01:30:39;18.13;;;5.50;;
9559;SDS011;4818;50.860;4.648;2024-02-28T01:33:05;13.50;;;5.00;;
9559;SDS011;4818;50.860;4.648;2024-02-28T01:38:01;10.48;;;4.10;;
9559;SDS011;4818;50.860;4.648;2024-02-28T01:40:27;13.38;;;5.70;;
9559;SDS011;4818;50.860;4.648;2024-02-28T01:42:54;12.20;;;4.40;;
9559;SDS011;4818;50.860;4.648;2024-02-28T01:45:20;14.45;;;4.65;;
9559;SDS011;4818;50.860;4.648;2024-02-28T01:47:53;13.98;;;4.30;;
9559;SDS011;4818;50.860;4.648;2024-02-28T01:50:19;12.98;;;5.75;;
9559;SDS011;4818;50.860;4.648;2024-02-28T01:52:49;13.32;;;5.03;;
9559;SDS011;4818;50.860;4.648;2024-02-28T01:55:19;14.13;;;4.65;;
9559;SDS011;4818;50.860;4.648;2024-02-28T01:57:48;11.63;;;4.53;;
9559;SDS011;4818;50.860;4.648;2024-02-28T02:00:15;15.27;;;4.05;;
9559;SDS011;4818;50.860;4.648;2024-02-28T02:02:43;11.88;;;4.97;;
9559;SDS011;4818;50.860;4.648;2024-02-28T02:05:09;13.88;;;5.13;;
9559;SDS011;4818;50.860;4.648;2024-02-28T02:07:54;15.50;;;5.43;;
9559;SDS011;4818;50.860;4.648;2024-02-28T02:10:25;11.27;;;5.38;;
9559;SDS011;4818;50.860;4.648;2024-02-28T02:12:51;13.25;;;4.45;;
9559;SDS011;4818;50.860;4.648;2024-02-28T02:15:21;15.57;;;5.05;;
9559;SDS011;4818;50.860;4.648;2024-02-28T02:17:54;10.63;;;3.80;;
9559;SDS011;4818;50.860;4.648;2024-02-28T02:20:20;18.25;;;5.20;;
9559;SDS011;4818;50.860;4.648;2024-02-28T02:22:56;10.85;;;3.47;;
9559;SDS011;4818;50.860;4.648;2024-02-28T02:25:28;11.65;;;4.85;;
9559;SDS011;4818;50.860;4.648;2024-02-28T02:28:04;15.55;;;4.53;;
9559;SDS011;4818;50.860;4.648;2024-02-28T02:30:30;11.50;;;4.25;;
9559;SDS011;4818;50.860;4.648;2024-02-28T02:33:03;15.02;;;5.10;;
9559;SDS011;4818;50.860;4.648;2024-02-28T02:35:33;13.02;;;4.88;;
9559;SDS011;4818;50.860;4.648;2024-02-28T02:38:03;18.17;;;6.05;;
9559;SDS011;4818;50.860;4.648;2024-02-28T02:40:39;16.98;;;4.60;;
9559;SDS011;4818;50.860;4.648;2024-02-28T02:43:15;12.00;;;4.78;;
9559;SDS011;4818;50.860;4.648;2024-02-28T02:48:19;14.00;;;4.50;;
9559;SDS011;4818;50.860;4.648;2024-02-28T02:50:49;14.35;;;4.63;;
9559;SDS011;4818;50.860;4.648;2024-02-28T02:53:24;10.73;;;3.22;;
9559;SDS011;4818;50.860;4.648;2024-02-28T02:55:51;10.00;;;3.40;;
9559;SDS011;4818;50.860;4.648;2024-02-28T02:58:19;12.27;;;4.38;;
9559;SDS011;4818;50.860;4.648;2024-02-28T03:00:45;11.18;;;4.28;;
9559;SDS011;4818;50.860;4.648;2024-02-28T03:03:24;12.32;;;4.05;;
9559;SDS011;4818;50.860;4.648;2024-02-28T03:05:56;10.80;;;4.78;;
9559;SDS011;4818;50.860;4.648;2024-02-28T03:08:39;12.18;;;4.68;;
9559;SDS011;4818;50.860;4.648;2024-02-28T03:11:06;10.48;;;3.58;;
9559;SDS011;4818;50.860;4.648;2024-02-28T03:13:36;12.35;;;4.18;;
9559;SDS011;4818;50.860;4.648;2024-02-28T03:16:03;13.65;;;3.85;;
9559;SDS011;4818;50.860;4.648;2024-02-28T03:18:32;14.05;;;5.28;;
9559;SDS011;4818;50.860;4.648;2024-02-28T03:21:05;15.48;;;4.13;;
9559;SDS011;4818;50.860;4.648;2024-02-28T03:26:25;10.82;;;4.07;;
9559;SDS011;4818;50.860;4.648;2024-02-28T03:29:00;11.73;;;4.38;;
9559;SDS011;4818;50.860;4.648;2024-02-28T03:31:30;13.07;;;4.05;;
9559;SDS011;4818;50.860;4.648;2024-02-28T03:34:02;13.02;;;3.28;;
9559;SDS011;4818;50.860;4.648;2024-02-28T03:36:35;14.52;;;4.55;;
9559;SDS011;4818;50.860;4.648;2024-02-28T03:39:02;12.57;;;3.83;;
9559;SDS011;4818;50.860;4.648;2024-02-28T03:41:29;10.77;;;3.58;;
9559;SDS011;4818;50.860;4.648;2024-02-28T03:44:01;14.10;;;4.43;;
9559;SDS011;4818;50.860;4.648;2024-02-28T03:46:31;15.38;;;5.15;;
9559;SDS011;4818;50.860;4.648;2024-02-28T03:49:21;12.00;;;4.72;;
9559;SDS011;4818;50.860;4.648;2024-02-28T03:51:56;12.52;;;4.72;;
9559;SDS011;4818;50.860;4.648;2024-02-28T03:54:23;15.90;;;4.22;;
9559;SDS011;4818;50.860;4.648;2024-02-28T03:59:27;11.65;;;2.83;;
9559;SDS011;4818;50.860;4.648;2024-02-28T04:02:00;9.95;;;3.28;;
9559;SDS011;4818;50.860;4.648;2024-02-28T04:09:53;15.23;;;4.13;;
9559;SDS011;4818;50.860;4.648;2024-02-28T04:12:29;14.35;;;4.75;;
9559;SDS011;4818;50.860;4.648;2024-02-28T04:15:04;9.55;;;3.38;;
9559;SDS011;4818;50.860;4.648;2024-02-28T04:20:04;10.50;;;3.33;;
9559;SDS011;4818;50.860;4.648;2024-02-28T04:22:33;11.60;;;3.83;;
9559;SDS011;4818;50.860;4.648;2024-02-28T04:25:00;12.30;;;4.10;;
9559;SDS011;4818;50.860;4.648;2024-02-28T04:27:29;11.27;;;3.80;;
9559;SDS011;4818;50.860;4.648;2024-02-28T04:32:47;13.65;;;3.75;;
9559;SDS011;4818;50.860;4.648;2024-02-28T04:35:16;10.50;;;2.65;;
9559;SDS011;4818;50.860;4.648;2024-02-28T04:37:47;12.52;;;4.25;;
9559;SDS011;4818;50.860;4.648;2024-02-28T04:40:16;11.75;;;3.92;;
9559;SDS011;4818;50.860;4.648;2024-02-28T04:42:43;14.32;;;4.57;;
9559;SDS011;4818;50.860;4.648;2024-02-28T04:45:09;10.75;;;4.63;;
9559;SDS011;4818;50.860;4.648;2024-02-28T04:47:36;10.80;;;4.55;;
9559;SDS011;4818;50.860;4.648;2024-02-28T04:50:03;10.30;;;3.95;;
9559;SDS011;4818;50.860;4.648;2024-02-28T04:52:32;9.60;;;3.85;;
9559;SDS011;4818;50.860;4.648;2024-02-28T04:54:59;13.48;;;3.85;;
9559;SDS011;4818;50.860;4.648;2024-02-28T04:57:25;16.30;;;5.10;;
9559;SDS011;4818;50.860;4.648;2024-02-28T04:59:51;9.65;;;4.45;;
9559;SDS011;4818;50.860;4.648;2024-02-28T05:02:18;12.70;;;4.07;;
9559;SDS011;4818;50.860;4.648;2024-02-28T05:04:44;8.55;;;3.38;;
9559;SDS011;4818;50.860;4.648;2024-02-28T05:07:10;13.43;;;3.97;;
9559;SDS011;4818;50.860;4.648;2024-02-28T05:09:36;9.90;;;3.88;;
9559;SDS011;4818;50.860;4.648;2024-02-28T05:12:02;13.05;;;5.03;;
9559;SDS011;4818;50.860;4.648;2024-02-28T05:14:29;13.00;;;4.70;;
9559;SDS011;4818;50.860;4.648;2024-02-28T05:16:55;11.85;;;3.20;;
9559;SDS011;4818;50.860;4.648;2024-02-28T05:19:21;14.82;;;4.05;;
9559;SDS011;4818;50.860;4.648;2024-02-28T05:21:47;11.20;;;3.22;;
9559;SDS011;4818;50.860;4.648;2024-02-28T05:24:14;9.90;;;3.45;;
9559;SDS011;4818;50.860;4.648;2024-02-28T05:26:40;6.63;;;2.83;;
9559;SDS011;4818;50.860;4.648;2024-02-28T05:29:06;8.98;;;3.70;;
9559;SDS011;4818;50.860;4.648;2024-02-28T05:31:33;13.50;;;4.88;;
9559;SDS011;4818;50.860;4.648;2024-02-28T05:33:59;8.55;;;3.78;;
9559;SDS011;4818;50.860;4.648;2024-02-28T05:36:27;14.98;;;4.40;;
9559;SDS011;4818;50.860;4.648;2024-02-28T05:38:54;13.07;;;3.08;;
9559;SDS011;4818;50.860;4.648;2024-02-28T05:41:20;11.73;;;3.15;;
9559;SDS011;4818;50.860;4.648;2024-02-28T05:43:47;12.73;;;3.55;;
9559;SDS011;4818;50.860;4.648;2024-02-28T05:46:14;12.68;;;3.60;;
9559;SDS011;4818;50.860;4.648;2024-02-28T05:48:41;12.15;;;3.88;;
9559;SDS011;4818;50.860;4.648;2024-02-28T05:51:07;11.25;;;3.22;;
9559;SDS011;4818;50.860;4.648;2024-02-28T05:53:34;9.80;;;3.58;;
9559;SDS011;4818;50.860;4.648;2024-02-28T05:56:05;13.10;;;2.58;;
9559;SDS011;4818;50.860;4.648;2024-02-28T05:58:40;9.10;;;2.60;;
9559;SDS011;4818;50.860;4.648;2024-02-28T06:01:08;11.38;;;3.47;;
9559;SDS011;4818;50.860;4.648;2024-02-28T06:03:34;7.13;;;2.65;;
9559;SDS011;4818;50.860;4.648;2024-02-28T06:06:00;8.45;;;2.80;;
9559;SDS011;4818;50.860;4.648;2024-02-28T06:08:30;10.05;;;3.30;;
9559;SDS011;4818;50.860;4.648;2024-02-28T06:10:57;9.55;;;2.30;;
9559;SDS011;4818;50.860;4.648;2024-02-28T06:13:23;7.25;;;1.92;;
9559;SDS011;4818;50.860;4.648;2024-02-28T06:15:49;9.32;;;3.17;;
9559;SDS011;4818;50.860;4.648;2024-02-28T06:18:15;12.15;;;3.38;;
9559;SDS011;4818;50.860;4.648;2024-02-28T06:20:42;8.05;;;3.30;;
9559;SDS011;4818;50.860;4.648;2024-02-28T06:23:08;11.10;;;3.35;;
9559;SDS011;4818;50.860;4.648;2024-02-28T06:25:35;12.93;;;2.75;;
9559;SDS011;4818;50.860;4.648;2024-02-28T06:28:01;10.00;;;3.10;;
9559;SDS011;4818;50.860;4.648;2024-02-28T06:32:58;6.75;;;2.38;;
9559;SDS011;4818;50.860;4.648;2024-02-28T06:35:25;9.93;;;3.50;;
9559;SDS011;4818;50.860;4.648;2024-02-28T06:37:51;6.30;;;2.60;;
9559;SDS011;4818;50.860;4.648;2024-02-28T06:40:18;11.70;;;4.10;;
9559;SDS011;4818;50.860;4.648;2024-02-28T06:42:44;13.27;;;2.95;;
9559;SDS011;4818;50.860;4.648;2024-02-28T06:45:10;11.85;;;3.78;;
9559;SDS011;4818;50.860;4.648;2024-02-28T06:47:36;12.93;;;3.88;;
9559;SDS011;4818;50.860;4.648;2024-02-28T06:50:03;16.60;;;4.47;;
9559;SDS011;4818;50.860;4.648;2024-02-28T06:52:30;14.15;;;3.80;;
9559;SDS011;4818;50.860;4.648;2024-02-28T06:54:57;11.70;;;3.30;;
9559;SDS011;4818;50.860;4.648;2024-02-28T06:57:25;11.52;;;3.42;;
9559;SDS011;4818;50.860;4.648;2024-02-28T06:59:51;15.18;;;4.70;;
9559;SDS011;4818;50.860;4.648;2024-02-28T07:02:18;11.65;;;3.72;;
9559;SDS011;4818;50.860;4.648;2024-02-28T07:04:45;10.52;;;4.15;;
9559;SDS011;4818;50.860;4.648;2024-02-28T07:07:11;17.25;;;5.40;;
9559;SDS011;4818;50.860;4.648;2024-02-28T07:09:40;14.30;;;4.88;;
9559;SDS011;4818;50.860;4.648;2024-02-28T07:12:06;14.02;;;4.25;;
9559;SDS011;4818;50.860;4.648;2024-02-28T07:14:32;15.68;;;5.25;;
9559;SDS011;4818;50.860;4.648;2024-02-28T07:16:59;12.60;;;5.10;;
9559;SDS011;4818;50.860;4.648;2024-02-28T07:19:28;9.80;;;4.55;;
9559;SDS011;4818;50.860;4.648;2024-02-28T07:21:54;13.02;;;5.28;;
9559;SDS011;4818;50.860;4.648;2024-02-28T07:24:20;14.80;;;4.95;;
9559;SDS011;4818;50.860;4.648;2024-02-28T07:26:47;12.32;;;4.25;;
9559;SDS011;4818;50.860;4.648;2024-02-28T07:29:14;13.48;;;5.00;;
9559;SDS011;4818;50.860;4.648;2024-02-28T07:31:40;13.02;;;5.18;;
9559;SDS011;4818;50.860;4.648;2024-02-28T07:34:06;10.73;;;3.80;;
9559;SDS011;4818;50.860;4.648;2024-02-28T07:36:33;14.05;;;4.40;;
9559;SDS011;4818;50.860;4.648;2024-02-28T07:38:59;12.20;;;4.75;;
9559;SDS011;4818;50.860;4.648;2024-02-28T07:41:25;13.13;;;4.47;;
9559;SDS011;4818;50.860;4.648;2024-02-28T07:43:52;12.02;;;4.35;;
9559;SDS011;4818;50.860;4.648;2024-02-28T07:46:18;17.98;;;5.75;;
9559;SDS011;4818;50.860;4.648;2024-02-28T07:48:44;10.77;;;4.50;;
9559;SDS011;4818;50.860;4.648;2024-02-28T07:51:11;15.65;;;4.10;;
9559;SDS011;4818;50.860;4.648;2024-02-28T07:53:37;11.85;;;4.18;;
9559;SDS011;4818;50.860;4.648;2024-02-28T07:56:03;18.75;;;5.95;;
9559;SDS011;4818;50.860;4.648;2024-02-28T07:58:30;11.27;;;4.03;;
9559;SDS011;4818;50.860;4.648;2024-02-28T08:00:56;11.32;;;4.07;;
9559;SDS011;4818;50.860;4.648;2024-02-28T08:03:22;14.98;;;4.40;;
9559;SDS011;4818;50.860;4.648;2024-02-28T08:05:49;11.77;;;5.28;;
9559;SDS011;4818;50.860;4.648;2024-02-28T08:08:15;13.52;;;4.53;;
9559;SDS011;4818;50.860;4.648;2024-02-28T08:10:42;13.52;;;3.78;;
9559;SDS011;4818;50.860;4.648;2024-02-28T08:13:10;10.55;;;4.30;;
9559;SDS011;4818;50.860;4.648;2024-02-28T08:15:36;13.10;;;3.97;;
9559;SDS011;4818;50.860;4.648;2024-02-28T08:18:03;19.08;;;5.32;;
9559;SDS011;4818;50.860;4.648;2024-02-28T08:20:29;11.48;;;4.90;;
9559;SDS011;4818;50.860;4.648;2024-02-28T08:22:56;12.38;;;4.05;;
9559;SDS011;4818;50.860;4.648;2024-02-28T08:25:23;11.05;;;4.30;;
9559;SDS011;4818;50.860;4.648;2024-02-28T08:27:50;13.45;;;5.22;;
9559;SDS011;4818;50.860;4.648;2024-02-28T08:30:16;13.50;;;3.72;;
9559;SDS011;4818;50.860;4.648;2024-02-28T08:32:42;9.77;;;4.10;;
9559;SDS011;4818;50.860;4.648;2024-02-28T08:35:09;10.05;;;4.13;;
9559;SDS011;4818;50.860;4.648;2024-02-28T08:37:38;11.18;;;4.47;;
9559;SDS011;4818;50.860;4.648;2024-02-28T08:40:05;17.73;;;4.50;;
9559;SDS011;4818;50.860;4.648;2024-02-28T08:42:31;13.73;;;4.68;;
9559;SDS011;4818;50.860;4.648;2024-02-28T08:44:59;15.52;;;5.50;;
9559;SDS011;4818;50.860;4.648;2024-02-28T08:47:25;13.68;;;4.82;;
9559;SDS011;4818;50.860;4.648;2024-02-28T08:49:52;14.60;;;4.82;;
9559;SDS011;4818;50.860;4.648;2024-02-28T08:52:19;10.32;;;4.03;;
9559;SDS011;4818;50.860;4.648;2024-02-28T08:54:45;14.20;;;5.07;;
9559;SDS011;4818;50.860;4.648;2024-02-28T08:57:12;14.48;;;4.82;;
9559;SDS011;4818;50.860;4.648;2024-02-28T09:02:08;8.70;;;3.20;;
9559;SDS011;4818;50.860;4.648;2024-02-28T09:04:36;11.27;;;3.97;;
9559;SDS011;4818;50.860;4.648;2024-02-28T09:07:02;12.38;;;4.20;;
9559;SDS011;4818;50.860;4.648;2024-02-28T09:09:28;14.05;;;4.25;;
9559;SDS011;4818;50.860;4.648;2024-02-28T09:12:00;14.57;;;4.82;;
9559;SDS011;4818;50.860;4.648;2024-02-28T09:14:28;13.30;;;4.95;;
9559;SDS011;4818;50.860;4.648;2024-02-28T09:16:54;10.27;;;3.50;;
9559;SDS011;4818;50.860;4.648;2024-02-28T09:19:31;12.32;;;4.25;;
9559;SDS011;4818;50.860;4.648;2024-02-28T09:21:57;10.13;;;4.03;;
9559;SDS011;4818;50.860;4.648;2024-02-28T09:24:24;11.43;;;4.53;;
9559;SDS011;4818;50.860;4.648;2024-02-28T09:26:50;12.40;;;5.53;;
9559;SDS011;4818;50.860;4.648;2024-02-28T09:29:17;11.65;;;4.70;;
9559;SDS011;4818;50.860;4.648;2024-02-28T09:31:43;16.00;;;5.85;;
9559;SDS011;4818;50.860;4.648;2024-02-28T09:34:09;9.02;;;4.80;;
9559;SDS011;4818;50.860;4.648;2024-02-28T09:36:42;17.65;;;5.28;;
9559;SDS011;4818;50.860;4.648;2024-02-28T09:39:14;11.75;;;4.28;;
9559;SDS011;4818;50.860;4.648;2024-02-28T09:41:40;11.55;;;4.50;;
9559;SDS011;4818;50.860;4.648;2024-02-28T09:44:07;11.70;;;5.22;;
9559;SDS011;4818;50.860;4.648;2024-02-28T09:46:33;10.93;;;4.88;;
9559;SDS011;4818;50.860;4.648;2024-02-28T09:49:06;15.13;;;4.22;;
9559;SDS011;4818;50.860;4.648;2024-02-28T09:51:33;12.57;;;3.60;;
9559;SDS011;4818;50.860;4.648;2024-02-28T09:54:03;10.93;;;3.70;;
9559;SDS011;4818;50.860;4.648;2024-02-28T09:56:30;12.77;;;3.45;;
9559;SDS011;4818;50.860;4.648;2024-02-28T09:58:57;9.13;;;3.30;;
9559;SDS011;4818;50.860;4.648;2024-02-28T10:01:23;7.65;;;2.17;;
9559;SDS011;4818;50.860;4.648;2024-02-28T10:03:51;4.43;;;1.95;;
9559;SDS011;4818;50.860;4.648;2024-02-28T10:06:18;5.47;;;1.77;;
9559;SDS011;4818;50.860;4.648;2024-02-28T10:08:44;7.22;;;2.90;;
9559;SDS011;4818;50.860;4.648;2024-02-28T10:11:17;4.75;;;1.73;;
9559;SDS011;4818;50.860;4.648;2024-02-28T10:13:45;8.80;;;2.90;;
9559;SDS011;4818;50.860;4.648;2024-02-28T10:16:11;8.93;;;2.72;;
9559;SDS011;4818;50.860;4.648;2024-02-28T10:18:37;8.93;;;2.92;;
9559;SDS011;4818;50.860;4.648;2024-02-28T10:21:04;7.85;;;1.55;;
9559;SDS011;4818;50.860;4.648;2024-02-28T10:23:30;6.10;;;1.25;;
9559;SDS011;4818;50.860;4.648;2024-02-28T10:25:56;4.43;;;1.40;;
9559;SDS011;4818;50.860;4.648;2024-02-28T10:28:23;5.07;;;1.25;;
9559;SDS011;4818;50.860;4.648;2024-02-28T10:30:49;4.70;;;1.73;;
9559;SDS011;4818;50.860;4.648;2024-02-28T10:33:15;4.03;;;1.27;;
9559;SDS011;4818;50.860;4.648;2024-02-28T10:35:42;6.20;;;2.50;;
9559;SDS011;4818;50.860;4.648;2024-02-28T10:38:11;3.65;;;1.30;;
9559;SDS011;4818;50.860;4.648;2024-02-28T10:40:39;5.18;;;2.08;;
9559;SDS011;4818;50.860;4.648;2024-02-28T10:43:07;5.38;;;1.25;;
9559;SDS011;4818;50.860;4.648;2024-02-28T10:45:35;5.93;;;1.42;;
9559;SDS011;4818;50.860;4.648;2024-02-28T10:48:04;5.57;;;1.88;;
9559;SDS011;4818;50.860;4.648;2024-02-28T10:50:30;6.40;;;1.95;;
9559;SDS011;4818;50.860;4.648;2024-02-28T10:52:58;6.57;;;1.27;;
9559;SDS011;4818;50.860;4.648;2024-02-28T10:55:30;3.80;;;1.58;;
9559;SDS011;4818;50.860;4.648;2024-02-28T10:58:06;5.18;;;1.40;;
9559;SDS011;4818;50.860;4.648;2024-02-28T11:00:36;6.68;;;1.70;;
9559;SDS011;4818;50.860;4.648;2024-02-28T11:03:04;4.82;;;1.27;;
9559;SDS011;4818;50.860;4.648;2024-02-28T11:05:49;4.93;;;1.33;;
9559;SDS011;4818;50.860;4.648;2024-02-28T11:08:22;5.40;;;1.90;;
9559;SDS011;4818;50.860;4.648;2024-02-28T11:10:56;4.25;;;1.80;;
9559;SDS011;4818;50.860;4.648;2024-02-28T11:13:25;8.95;;;1.58;;
9559;SDS011;4818;50.860;4.648;2024-02-28T11:15:52;5.25;;;1.10;;
9559;SDS011;4818;50.860;4.648;2024-02-28T11:18:18;4.60;;;1.48;;
9559;SDS011;4818;50.860;4.648;2024-02-28T11:20:44;3.65;;;1.45;;
9559;SDS011;4818;50.860;4.648;2024-02-28T11:23:16;5.18;;;1.33;;
9559;SDS011;4818;50.860;4.648;2024-02-28T11:25:43;5.15;;;1.90;;
9559;SDS011;4818;50.860;4.648;2024-02-28T11:28:09;6.35;;;1.73;;
9559;SDS011;4818;50.860;4.648;2024-02-28T11:30:36;7.57;;;1.92;;
9559;SDS011;4818;50.860;4.648;2024-02-28T11:33:03;5.68;;;2.00;;
9559;SDS011;4818;50.860;4.648;2024-02-28T11:35:30;4.30;;;1.40;;
9559;SDS011;4818;50.860;4.648;2024-02-28T11:37:59;5.22;;;2.00;;
9559;SDS011;4818;50.860;4.648;2024-02-28T11:40:26;9.68;;;2.08;;
9559;SDS011;4818;50.860;4.648;2024-02-28T11:42:53;5.00;;;2.35;;
9559;SDS011;4818;50.860;4.648;2024-02-28T11:45:20;5.32;;;1.80;;
9559;SDS011;4818;50.860;4.648;2024-02-28T11:47:46;7.15;;;1.35;;
9559;SDS011;4818;50.860;4.648;2024-02-28T11:50:12;5.05;;;2.38;;
9559;SDS011;4818;50.860;4.648;2024-02-28T11:52:40;4.97;;;2.45;;
9559;SDS011;4818;50.860;4.648;2024-02-28T11:55:07;5.53;;;1.92;;
9559;SDS011;4818;50.860;4.648;2024-02-28T11:57:33;4.07;;;1.50;;
9559;SDS011;4818;50.860;4.648;2024-02-28T12:00:04;5.05;;;1.63;;
9559;SDS011;4818;50.860;4.648;2024-02-28T12:02:31;4.97;;;2.38;;
9559;SDS011;4818;50.860;4.648;2024-02-28T12:05:04;5.60;;;3.08;;
9559;SDS011;4818;50.860;4.648;2024-02-28T12:07:31;3.88;;;2.35;;
9559;SDS011;4818;50.860;4.648;2024-02-28T12:09:57;5.95;;;2.65;;
9559;SDS011;4818;50.860;4.648;2024-02-28T12:12:24;5.40;;;2.25;;
9559;SDS011;4818;50.860;4.648;2024-02-28T12:14:50;7.03;;;2.58;;
9559;SDS011;4818;50.860;4.648;2024-02-28T12:17:17;5.30;;;2.00;;
9559;SDS011;4818;50.860;4.648;2024-02-28T12:19:44;8.07;;;2.17;;
9559;SDS011;4818;50.860;4.648;2024-02-28T12:22:10;5.95;;;2.38;;
9559;SDS011;4818;50.860;4.648;2024-02-28T12:24:36;4.80;;;2.20;;
9559;SDS011;4818;50.860;4.648;2024-02-28T12:27:02;4.10;;;1.40;;
9559;SDS011;4818;50.860;4.648;2024-02-28T12:29:29;5.15;;;1.92;;
9559;SDS011;4818;50.860;4.648;2024-02-28T12:31:55;3.97;;;1.35;;
9559;SDS011;4818;50.860;4.648;2024-02-28T12:34:22;6.45;;;1.83;;
9559;SDS011;4818;50.860;4.648;2024-02-28T12:36:48;4.97;;;1.90;;
9559;SDS011;4818;50.860;4.648;2024-02-28T12:39:14;6.30;;;2.15;;
9559;SDS011;4818;50.860;4.648;2024-02-28T12:41:41;4.57;;;1.38;;
9559;SDS011;4818;50.860;4.648;2024-02-28T12:44:07;4.22;;;1.25;;
9559;SDS011;4818;50.860;4.648;2024-02-28T12:46:34;2.03;;;1.00;;
9559;SDS011;4818;50.860;4.648;2024-02-28T12:49:01;3.85;;;1.35;;
9559;SDS011;4818;50.860;4.648;2024-02-28T12:54:03;3.72;;;1.23;;
9559;SDS011;4818;50.860;4.648;2024-02-28T12:56:29;2.05;;;1.10;;
9559;SDS011;4818;50.860;4.648;2024-02-28T12:58:55;2.15;;;0.90;;
9559;SDS011;4818;50.860;4.648;2024-02-28T13:01:21;2.70;;;0.95;;
9559;SDS011;4818;50.860;4.648;2024-02-28T13:03:48;3.13;;;1.05;;
9559;SDS011;4818;50.860;4.648;2024-02-28T13:06:14;3.03;;;1.20;;
9559;SDS011;4818;50.860;4.648;2024-02-28T13:08:40;3.20;;;1.20;;
9559;SDS011;4818;50.860;4.648;2024-02-28T13:11:07;3.30;;;0.77;;
9559;SDS011;4818;50.860;4.648;2024-02-28T13:13:33;3.10;;;0.68;;
9559;SDS011;4818;50.860;4.648;2024-02-28T13:15:59;1.55;;;0.70;;
9559;SDS011;4818;50.860;4.648;2024-02-28T13:18:26;1.40;;;0.30;;
9559;SDS011;4818;50.860;4.648;2024-02-28T13:20:52;1.17;;;0.40;;
9559;SDS011;4818;50.860;4.648;2024-02-28T13:23:18;3.42;;;0.73;;
9559;SDS011;4818;50.860;4.648;2024-02-28T13:25:44;1.20;;;0.60;;
9559;SDS011;4818;50.860;4.648;2024-02-28T13:28:11;2.85;;;0.60;;
9559;SDS011;4818;50.860;4.648;2024-02-28T13:30:37;1.25;;;0.30;;
9559;SDS011;4818;50.860;4.648;2024-02-28T13:33:03;1.20;;;0.25;;
9559;SDS011;4818;50.860;4.648;2024-02-28T13:35:30;1.27;;;0.55;;
9559;SDS011;4818;50.860;4.648;2024-02-28T13:37:56;1.88;;;0.30;;
9559;SDS011;4818;50.860;4.648;2024-02-28T13:40:28;0.93;;;0.20;;
9559;SDS011;4818;50.860;4.648;2024-02-28T13:42:54;1.08;;;0.20;;
9559;SDS011;4818;50.860;4.648;2024-02-28T13:45:21;0.30;;;0.10;;
9559;SDS011;4818;50.860;4.648;2024-02-28T13:47:47;1.00;;;0.30;;
9559;SDS011;4818;50.860;4.648;2024-02-28T13:50:14;1.02;;;0.30;;
9559;SDS011;4818;50.860;4.648;2024-02-28T13:52:40;0.60;;;0.20;;
9559;SDS011;4818;50.860;4.648;2024-02-28T13:55:06;0.90;;;0.30;;
9559;SDS011;4818;50.860;4.648;2024-02-28T13:57:38;2.20;;;0.38;;
9559;SDS011;4818;50.860;4.648;2024-02-28T14:00:05;1.02;;;0.28;;
9559;SDS011;4818;50.860;4.648;2024-02-28T14:02:34;1.00;;;0.30;;
9559;SDS011;4818;50.860;4.648;2024-02-28T14:05:00;0.60;;;0.40;;
9559;SDS011;4818;50.860;4.648;2024-02-28T14:07:26;0.85;;;0.17;;
9559;SDS011;4818;50.860;4.648;2024-02-28T14:09:52;0.90;;;0.30;;
9559;SDS011;4818;50.860;4.648;2024-02-28T14:12:19;1.75;;;0.30;;
9559;SDS011;4818;50.860;4.648;2024-02-28T14:14:45;1.20;;;0.20;;
9559;SDS011;4818;50.860;4.648;2024-02-28T14:17:11;1.13;;;0.22;;
9559;SDS011;4818;50.860;4.648;2024-02-28T14:19:37;3.17;;;0.93;;
9559;SDS011;4818;50.860;4.648;2024-02-28T14:22:04;0.63;;;0.20;;
9559;SDS011;4818;50.860;4.648;2024-02-28T14:24:30;0.73;;;0.30;;
9559;SDS011;4818;50.860;4.648;2024-02-28T14:26:57;1.10;;;0.20;;
9559;SDS011;4818;50.860;4.648;2024-02-28T14:29:23;0.80;;;0.20;;
9559;SDS011;4818;50.860;4.648;2024-02-28T14:31:49;3.53;;;0.40;;
9559;SDS011;4818;50.860;4.648;2024-02-28T14:34:16;2.33;;;0.30;;
9559;SDS011;4818;50.860;4.648;2024-02-28T14:36:42;1.13;;;0.63;;
9559;SDS011;4818;50.860;4.648;2024-02-28T14:39:08;1.77;;;0.43;;
9559;SDS011;4818;50.860;4.648;2024-02-28T14:41:41;0.90;;;0.30;;
9559;SDS011;4818;50.860;4.648;2024-02-28T14:44:09;1.30;;;0.15;;
9559;SDS011;4818;50.860;4.648;2024-02-28T14:46:35;0.77;;;0.10;;
9559;SDS011;4818;50.860;4.648;2024-02-28T14:49:01;1.70;;;0.75;;
9559;SDS011;4818;50.860;4.648;2024-02-28T14:51:28;1.20;;;0.30;;
9559;SDS011;4818;50.860;4.648;2024-02-28T14:53:58;0.80;;;0.20;;
9559;SDS011;4818;50.860;4.648;2024-02-28T14:56:25;1.60;;;0.30;;
9559;SDS011;4818;50.860;4.648;2024-02-28T14:58:54;0.70;;;0.10;;
9559;SDS011;4818;50.860;4.648;2024-02-28T15:01:20;1.10;;;0.47;;
9559;SDS011;4818;50.860;4.648;2024-02-28T15:03:48;2.15;;;0.30;;
9559;SDS011;4818;50.860;4.648;2024-02-28T15:06:14;1.35;;;0.20;;
9559;SDS011;4818;50.860;4.648;2024-02-28T15:08:41;0.90;;;0.30;;
9559;SDS011;4818;50.860;4.648;2024-02-28T15:11:08;0.90;;;0.30;;
9559;SDS011;4818;50.860;4.648;2024-02-28T15:13:34;0.82;;;0.22;;
9559;SDS011;4818;50.860;4.648;2024-02-28T15:16:00;0.55;;;0.10;;
9559;SDS011;4818;50.860;4.648;2024-02-28T15:18:26;0.82;;;0.20;;
9559;SDS011;4818;50.860;4.648;2024-02-28T15:20:53;0.63;;;0.20;;
9559;SDS011;4818;50.860;4.648;2024-02-28T15:23:20;0.60;;;0.10;;
9559;SDS011;4818;50.860;4.648;2024-02-28T15:25:49;0.90;;;0.30;;
9559;SDS011;4818;50.860;4.648;2024-02-28T15:28:19;1.00;;;0.20;;
9559;SDS011;4818;50.860;4.648;2024-02-28T15:30:46;1.55;;;0.30;;
9559;SDS011;4818;50.860;4.648;2024-02-28T15:33:16;0.82;;;0.20;;
9559;SDS011;4818;50.860;4.648;2024-02-28T15:35:42;0.50;;;0.10;;
9559;SDS011;4818;50.860;4.648;2024-02-28T15:38:09;1.75;;;0.10;;
9559;SDS011;4818;50.860;4.648;2024-02-28T15:40:35;0.35;;;0.20;;
9559;SDS011;4818;50.860;4.648;2024-02-28T15:43:01;0.40;;;0.10;;
9559;SDS011;4818;50.860;4.648;2024-02-28T15:45:28;0.32;;;0.10;;
9559;SDS011;4818;50.860;4.648;2024-02-28T15:47:54;0.50;;;0.30;;
9559;SDS011;4818;50.860;4.648;2024-02-28T15:50:21;1.77;;;0.20;;